createdAt,value
2023-04-09T00:02:01.072Z,62.07
2023-04-09T00:08:23.188Z,70.63
2023-04-09T00:15:15.053Z,78.80
2023-04-09T00:28:00.579Z,87.07
2023-04-09T00:34:02.027Z,71.10
2023-04-09T00:47:13.044Z,101.63
2023-04-09T00:53:18.757Z,65.00
2023-04-09T00:59:36.333Z,93.43
2023-04-09T01:06:41.149Z,71.57
2023-04-09T01:12:43.388Z,68.43
2023-04-09T01:19:41.407Z,60.13
2023-04-09T01:26:32.708Z,57.00
2023-04-09T01:32:42.299Z,59.97
2023-04-09T01:38:51.791Z,73.80
2023-04-09T01:45:21.727Z,65.60
2023-04-09T01:51:31.816Z,54.27
2023-04-09T01:57:43.638Z,58.63
2023-04-09T02:04:20.927Z,62.53
2023-04-09T02:10:32.397Z,78.03
2023-04-09T02:16:46.991Z,89.83
2023-04-09T02:23:02.178Z,84.90
2023-04-09T02:29:12.117Z,50.07
2023-04-09T02:35:22.478Z,50.40
2023-04-09T02:41:30.670Z,64.67
2023-04-09T02:47:41.121Z,59.03
2023-04-09T02:53:50.971Z,56.73
2023-04-09T03:00:55.777Z,49.27
2023-04-09T05:43:55.226Z,81.60
2023-04-09T06:33:30.062Z,102.90
2023-04-09T06:40:10.845Z,153.30
2023-04-09T07:19:14.563Z,60.07
2023-04-09T07:25:26.236Z,54.60
2023-04-09T07:51:10.667Z,63.37
2023-04-09T07:57:39.708Z,65.23
2023-04-09T08:04:02.623Z,76.73
2023-04-09T08:17:57.746Z,76.07
2023-04-09T08:43:58.298Z,50.83
2023-04-09T08:50:03.676Z,46.30
2023-04-09T08:56:18.335Z,41.63
2023-04-09T09:03:13.469Z,43.70
2023-04-09T09:09:52.378Z,46.80
2023-04-09T09:23:11.224Z,39.37
2023-04-09T09:35:55.296Z,37.03
2023-04-09T09:42:18.791Z,38.63
2023-04-09T09:48:29.389Z,38.90
2023-04-09T09:54:42.630Z,32.17
2023-04-09T10:01:00.146Z,40.83
2023-04-09T10:07:12.898Z,37.97
2023-04-09T10:13:49.642Z,36.37
2023-04-09T10:20:31.576Z,32.17
2023-04-09T10:26:36.637Z,28.60
2023-04-09T10:33:05.760Z,32.87
2023-04-09T10:39:23.780Z,32.93
2023-04-09T10:45:43.076Z,23.73
2023-04-09T10:52:07.475Z,27.50
2023-04-09T11:05:20.493Z,24.10
2023-04-09T11:11:37.594Z,19.03
2023-04-09T11:17:49.648Z,18.20
2023-04-09T11:23:56.531Z,20.13
2023-04-09T11:30:01.100Z,21.20
2023-04-09T11:36:14.899Z,19.23
2023-04-09T11:42:27.039Z,18.17
2023-04-09T11:48:40.764Z,20.30
2023-04-09T11:55:20.247Z,20.17
2023-04-09T12:01:23.595Z,17.43
2023-04-09T12:07:36.084Z,14.13
2023-04-09T12:13:58.048Z,17.40
2023-04-09T12:20:04.796Z,15.17
2023-04-09T12:26:07.573Z,14.27
2023-04-09T12:32:14.148Z,12.27
2023-04-09T12:38:16.502Z,11.60
2023-04-09T12:44:24.478Z,12.10
2023-04-09T12:50:37.514Z,12.17
2023-04-09T12:56:39.948Z,10.93
2023-04-09T13:09:22.033Z,14.83
2023-04-09T13:15:34.839Z,10.93
2023-04-09T13:21:41.968Z,12.90
2023-04-09T13:27:48.508Z,14.80
2023-04-09T13:34:18.169Z,13.10
2023-04-09T13:40:38.275Z,12.03
2023-04-09T13:46:55.888Z,14.07
2023-04-09T13:53:15.357Z,12.40
2023-04-09T13:59:37.222Z,13.23
2023-04-09T14:05:58.591Z,12.07
2023-04-09T14:12:17.365Z,14.60
2023-04-09T14:19:03.161Z,10.83
2023-04-09T14:25:08.602Z,14.17
2023-04-09T14:31:27.767Z,12.93
2023-04-09T14:37:37.382Z,11.90
2023-04-09T14:50:17.641Z,11.87
2023-04-09T15:10:31.360Z,12.37
2023-04-09T15:16:53.141Z,10.47
2023-04-09T15:30:02.459Z,12.40
2023-04-09T15:36:36.559Z,11.80
2023-04-09T15:42:46.019Z,11.87
2023-04-09T15:49:33.097Z,11.93
2023-04-09T15:56:13.554Z,12.00
2023-04-09T16:02:37.339Z,16.87
2023-04-09T16:09:06.210Z,20.63
2023-04-09T16:57:48.744Z,15.03
2023-04-09T17:04:51.249Z,21.90
2023-04-09T17:18:53.229Z,16.60
2023-04-09T17:25:18.258Z,16.30
2023-04-09T17:32:03.781Z,16.57
2023-04-09T17:38:30.168Z,15.70
2023-04-09T17:51:24.910Z,19.87
2023-04-09T17:58:03.992Z,25.70
2023-04-09T18:12:06.012Z,23.97
2023-04-09T18:18:39.941Z,26.80
2023-04-09T18:26:10.202Z,42.00
2023-04-09T18:38:24.749Z,38.23
2023-04-09T18:44:57.746Z,37.80
2023-04-09T18:51:45.557Z,36.93
2023-04-09T19:17:37.297Z,30.70
2023-04-09T19:24:52.274Z,55.80
2023-04-09T19:30:29.296Z,61.77
2023-04-09T19:44:12.938Z,101.33
2023-04-09T19:57:44.128Z,84.07
2023-04-09T20:04:08.339Z,114.23
2023-04-09T20:10:34.373Z,86.53
2023-04-09T20:16:43.729Z,89.53
2023-04-09T20:23:09.226Z,110.30
2023-04-09T20:29:30.511Z,99.17
2023-04-09T20:35:40.959Z,88.57
2023-04-09T20:41:51.888Z,67.57
2023-04-09T20:48:18.154Z,75.00
2023-04-09T20:54:37.633Z,62.03
2023-04-09T21:00:48.373Z,81.63
2023-04-09T21:06:53.208Z,65.60
2023-04-09T21:13:00.743Z,34.77
2023-04-09T21:19:09.514Z,39.27
2023-04-09T21:25:14.561Z,34.80
2023-04-09T21:31:17.813Z,49.53
2023-04-09T21:37:24.283Z,64.30
2023-04-09T21:43:28.714Z,74.47
2023-04-09T21:49:38.004Z,59.03
2023-04-09T21:55:43.660Z,39.33
2023-04-09T22:01:59.301Z,45.90
2023-04-09T22:08:17.689Z,41.37
2023-04-09T22:20:46.801Z,58.03
2023-04-09T22:26:49.188Z,58.63
2023-04-09T22:39:12.242Z,85.27
2023-04-09T22:45:15.737Z,75.50
2023-04-09T22:51:18.159Z,49.33
2023-04-09T22:57:20.636Z,70.60
2023-04-09T23:03:26.212Z,41.87
2023-04-09T23:09:28.569Z,41.30
2023-04-09T23:15:31.066Z,39.83
2023-04-09T23:21:33.258Z,49.83
2023-04-09T23:27:42.016Z,72.50
2023-04-09T23:33:44.079Z,77.77
2023-04-09T23:39:49.945Z,49.43
2023-04-09T23:45:59.404Z,77.03
2023-04-09T23:52:01.910Z,71.37
2023-04-09T23:58:09.683Z,73.57
